Nearby METAR Reports

Here are local weather reports from nearby weather stations and airports.

KHFD - Hartford/Brainar, Connecticut, USA
Distance from station: NE 5mi, 8km
Updated: Wed, 06/28/2017 2:53pm EDT
Mostly cloudy
Mostly cloudy
 Wind from WNW
Wind: WNW 12 mph , 19 km/h, Gust: 21 mph , 33 km/h
Temperature: 75°F , 24°C
Dew Point: 46°F , 8°C
Humidity: 36%
Barometer: 30.08 inHg , 1018.6 hPa
Clouds: Mostly cloudy
Visibility: 10 miles , 16 km
Cloud details: Mostly cloudy 9000 ft
2017/06/28 18:53 KHFD 281853Z 30010G18KT 10SM BKN090 24/08 A3008 RMK AO2 SLP186 T02440078
KMMK - Meriden, Connecticut, USA
Distance from station: SSW 13mi, 21km
Updated: Wed, 06/28/2017 2:53pm EDT
Partly cloudy
Partly cloudy
 Wind from varies
Wind: varies 5 mph , 7 km/h
Temperature: 75°F , 24°C
Dew Point: 48°F , 9°C
Humidity: 39%
Barometer: 30.09 inHg , 1019 hPa
Clouds: Partly cloudy
Visibility: 10 miles , 16 km
Cloud details: Few Clouds 6500 ft
Partly cloudy 9000 ft
2017/06/28 18:53 KMMK 281853Z AUTO VRB04KT 10SM FEW065 SCT090 24/09 A3009 RMK AO2 SLP188 T02390094 TSNO
 
KBDL - Windsor Locks, Connecticut, USA
Distance from station: N 17mi, 28km
Updated: Wed, 06/28/2017 2:51pm EDT
Mostly cloudy
Mostly cloudy
 Wind from WNW
Wind: WNW 12 mph , 19 km/h
Temperature: 77°F , 25°C
Dew Point: 48°F , 9°C
Humidity: 36%
Barometer: 30.08 inHg , 1018.6 hPa
Clouds: Mostly cloudy
Visibility: 10 miles , 16 km
Cloud details: Partly cloudy 6500 ft
Mostly cloudy 8000 ft
Mostly cloudy 9500 ft
2017/06/28 18:51 KBDL 281851Z 29010KT 10SM SCT065 BKN080 BKN095 25/09 A3008 RMK AO2 SLP187 T02500094
KSNC - Chester, Connecticut, USA
Distance from station: SSE 24mi, 38km
Updated: Wed, 06/28/2017 3:15pm EDT
Clear
Clear
 Wind from NNW
Wind: NNW 9 mph , 15 km/h, Gust: 16 mph , 26 km/h
Temperature: 75°F , 24°C
Dew Point: 46°F , 8°C
Humidity: 36%
Barometer: 30.09 inHg , 1019 hPa
Clouds: Clear
Visibility: 10 miles , 16 km
2017/06/28 19:15 KSNC 281915Z AUTO 33008G14KT 10SM CLR 24/08 A3009 RMK AO2
 
KOXC - Oxford/Waterbury, Connecticut, USA
Distance from station: SW 26mi, 42km
Updated: Wed, 06/28/2017 2:50pm EDT
Partly cloudy
Partly cloudy
 Wind from WNW
Wind: WNW 6 mph , 9 km/h
Temperature: 73°F , 23°C
Dew Point: 48°F , 9°C
Humidity: 41%
Barometer: 30.11 inHg , 1019.6 hPa
Clouds: Partly cloudy
Visibility: 10 miles , 16 km
Cloud details: Partly cloudy 6000 ft
2017/06/28 18:50 KOXC 281850Z 29005KT 10SM SCT060 23/09 A3011
KIJD - Willimantic, Connecticut, USA
Distance from station: E 28mi, 45km
Updated: Wed, 06/28/2017 2:52pm EDT
Few Clouds
Few Clouds
 Wind from W
Wind: W 10 mph , 17 km/h, Gust: 18 mph , 30 km/h
Temperature: 77°F , 25°C
Dew Point: 46°F , 8°C
Humidity: 34%
Barometer: 30.09 inHg , 1019 hPa
Clouds: Few Clouds
Visibility: 10 miles , 16 km
Cloud details: Few Clouds 8000 ft
2017/06/28 18:52 KIJD 281852Z AUTO 28009G16KT 10SM FEW080 25/08 A3009 RMK AO2 SLP187 T02500083
 
KHVN - New Haven/Tweed, Connecticut, USA
Distance from station: SSW 30mi, 48km
Updated: Wed, 06/28/2017 2:53pm EDT
Partly cloudy
Partly cloudy
 Wind from WNW
Wind: WNW 12 mph , 19 km/h, Gust: 20 mph , 31 km/h
Temperature: 75°F , 24°C
Dew Point: 48°F , 9°C
Humidity: 39%
Barometer: 30.10 inHg , 1019.3 hPa
Clouds: Partly cloudy
Visibility: 10 miles , 16 km
Cloud details: Partly cloudy 7000 ft
2017/06/28 18:53 KHVN 281853Z 30010G17KT 10SM SCT070 24/09 A3010 RMK AO2 SLP191 T02440094
KBAF - Westfield, Massachusetts, USA
Distance from station: 0 33mi, 54km
Updated: Wed, 06/28/2017 2:53pm EDT
Mostly cloudy
Mostly cloudy
 Wind from WNW
Wind: WNW 15 mph , 24 km/h, Gust: 20 mph , 31 km/h
Temperature: 77°F , 25°C
Dew Point: 48°F , 9°C
Humidity: 36%
Barometer: 30.07 inHg , 1018.3 hPa
Clouds: Mostly cloudy
Visibility: 10 miles , 16 km
Cloud details: Few Clouds 7000 ft
Mostly cloudy 9000 ft
2017/06/28 18:53 KBAF 281853Z 29013G17KT 10SM FEW070 BKN090 25/09 A3007 RMK AO2 SLP185 T02500089 $
 
KCEF - Chicopee/Westove, Massachusetts, USA
Distance from station: NNE 37mi, 60km
Updated: Wed, 06/28/2017 2:58pm EDT
Partly cloudy
Partly cloudy
 Wind from W
Wind: W 17 mph , 28 km/h
Temperature: 75°F , 24°C
Dew Point: 48°F , 9°C
Humidity: 39%
Barometer: 30.06 inHg , 1017.9 hPa
Clouds: Partly cloudy
Visibility: 10 miles , 16 km
Cloud details: Partly cloudy 6500 ft
2017/06/28 18:58 KCEF 281858Z 27015KT 10SM SCT065 24/09 A3006 RMK AO2A SLP185 T02430089
KBDR - Bridgeport, Connecticut, USA
Distance from station: SSW 42mi, 67km
Updated: Wed, 06/28/2017 2:52pm EDT
Partly cloudy
Partly cloudy
 Wind from WNW
Wind: WNW 10 mph , 17 km/h, Gust: 20 mph , 31 km/h
Temperature: 79°F , 26°C
Dew Point: 48°F , 9°C
Humidity: 34%
Barometer: 30.08 inHg , 1018.6 hPa
Clouds: Partly cloudy
Visibility: 10 miles , 16 km
Cloud details: Partly cloudy 6500 ft
2017/06/28 18:52 KBDR 281852Z 29009G17KT 260V340 10SM SCT065 26/09 A3008 RMK AO2 SLP187 T02610094
 
KGON - Groton/New Londo, Connecticut, USA
Distance from station: SE 42mi, 68km
Updated: Wed, 06/28/2017 2:56pm EDT
Mostly cloudy
Mostly cloudy
 Wind from SW
Wind: SW 13 mph , 20 km/h, Gust: 23 mph , 37 km/h
Temperature: 72°F , 22°C
Dew Point: 55°F , 13°C
Humidity: 57%
Barometer: 30.08 inHg , 1018.6 hPa
Clouds: Mostly cloudy
Visibility: 10 miles , 16 km
Cloud details: Mostly cloudy 7500 ft
2017/06/28 18:56 KGON 281856Z 23011G20KT 10SM BKN075 22/13 A3008 RMK AO2 SLP185 T02170128
KDXR - Danbury, Connecticut, USA
Distance from station: WSW 45mi, 73km
Updated: Wed, 06/28/2017 2:53pm EDT
Partly cloudy
Partly cloudy
 Wind from NW
Wind: NW 8 mph , 13 km/h
Temperature: 75°F , 24°C
Dew Point: 50°F , 10°C
Humidity: 41%
Barometer: 30.10 inHg , 1019.3 hPa
Clouds: Partly cloudy
Visibility: 10 miles , 16 km
Cloud details: Partly cloudy 6000 ft
2017/06/28 18:53 KDXR 281853Z 31007KT 10SM SCT060 24/10 A3010 RMK AO2 SLP191 T02390100